地図

経路データ

SID SEASON NUMBER BASIN SUBBASIN NAME ISO_TIME NATURE LAT LON WMO_WIND WMO_PRES WMO_AGENCY TRACK_TYPE DIST2LAND LANDFALL IFLAG USA_AGENCY USA_ATCF_ID USA_LAT USA_LON USA_RECORD USA_STATUS USA_WIND USA_PRES USA_SSHS USA_R34_NE USA_R34_SE USA_R34_SW USA_R34_NW USA_R50_NE USA_R50_SE USA_R50_SW USA_R50_NW USA_R64_NE USA_R64_SE USA_R64_SW USA_R64_NW USA_POCI USA_ROCI USA_RMW USA_EYE TOKYO_LAT TOKYO_LON TOKYO_GRADE TOKYO_WIND TOKYO_PRES TOKYO_R50_DIR TOKYO_R50_LONG TOKYO_R50_SHORT TOKYO_R30_DIR TOKYO_R30_LONG TOKYO_R30_SHORT TOKYO_LAND CMA_LAT CMA_LON CMA_CAT CMA_WIND CMA_PRES HKO_LAT HKO_LON HKO_CAT HKO_WIND HKO_PRES NEWDELHI_LAT NEWDELHI_LON NEWDELHI_GRADE NEWDELHI_WIND NEWDELHI_PRES NEWDELHI_CI NEWDELHI_DP NEWDELHI_POCI REUNION_LAT REUNION_LON REUNION_TYPE REUNION_WIND REUNION_PRES REUNION_TNUM REUNION_CI REUNION_RMW REUNION_R34_NE REUNION_R34_SE REUNION_R34_SW REUNION_R34_NW REUNION_R50_NE REUNION_R50_SE REUNION_R50_SW REUNION_R50_NW REUNION_R64_NE REUNION_R64_SE REUNION_R64_SW REUNION_R64_NW BOM_LAT BOM_LON BOM_TYPE BOM_WIND BOM_PRES BOM_TNUM BOM_CI BOM_RMW BOM_R34_NE BOM_R34_SE BOM_R34_SW BOM_R34_NW BOM_R50_NE BOM_R50_SE BOM_R50_SW BOM_R50_NW BOM_R64_NE BOM_R64_SE BOM_R64_SW BOM_R64_NW BOM_ROCI BOM_POCI BOM_EYE BOM_POS_METHOD BOM_PRES_METHOD NADI_LAT NADI_LON NADI_CAT NADI_WIND NADI_PRES WELLINGTON_LAT WELLINGTON_LON WELLINGTON_WIND WELLINGTON_PRES DS824_LAT DS824_LON DS824_STAGE DS824_WIND DS824_PRES TD9636_LAT TD9636_LON TD9636_STAGE TD9636_WIND TD9636_PRES TD9635_LAT TD9635_LON TD9635_WIND TD9635_PRES TD9635_ROCI NEUMANN_LAT NEUMANN_LON NEUMANN_CLASS NEUMANN_WIND NEUMANN_PRES MLC_LAT MLC_LON MLC_CLASS MLC_WIND MLC_PRES USA_GUST BOM_GUST BOM_GUST_PER REUNION_GUST REUNION_GUST_PER USA_SEAHGT USA_SEARAD_NE USA_SEARAD_SE USA_SEARAD_SW USA_SEARAD_NW STORM_SPEED STORM_DIR
1946279N18273 1946 59 NA CS NOT_NAMED 1946-10-05 18:00:00 TS 18.2000 -87.5000 35 hurdat_atl main 31 31 O_____________ hurdat_atl AL061946 18.2000 -87.5000 TS 35 0 10 53
1946279N18273 1946 59 NA CS NOT_NAMED 1946-10-05 21:00:00 TS 18.5002 -87.0878 main 64 64 P_____________ AL061946 18.5002 -87.0878 TS 40 0 10 52
1946279N18273 1946 59 NA CS NOT_NAMED 1946-10-06 00:00:00 TS 18.8000 -86.7000 45 hurdat_atl main 95 95 O_____________ hurdat_atl AL061946 18.8000 -86.7000 TS 45 0 9 49
1946279N18273 1946 59 NA CS NOT_NAMED 1946-10-06 03:00:00 TS 19.0998 -86.3498 main 123 120 P_____________ AL061946 19.0998 -86.3498 TS 50 0 9 48
1946279N18273 1946 59 NA CS NOT_NAMED 1946-10-06 06:00:00 TS 19.4000 -86.0000 55 hurdat_atl main 147 147 O_____________ hurdat_atl AL061946 19.4000 -86.0000 TS 55 0 9 50
1946279N18273 1946 59 NA CS NOT_NAMED 1946-10-06 09:00:00 TS 19.6925 -85.5999 main 183 183 P_____________ AL061946 19.6925 -85.5999 TS 60 0 10 51
1946279N18273 1946 59 NA CS NOT_NAMED 1946-10-06 12:00:00 TS 20.0000 -85.2000 65 993 hurdat_atl main 198 167 O_____________ hurdat_atl AL061946 20.0000 -85.2000 HU 65 993 1 10 49
1946279N18273 1946 59 NA CS NOT_NAMED 1946-10-06 15:00:00 TS 20.3350 -84.8200 main 167 123 P_____________ AL061946 20.3350 -84.8200 HU 70 1 10 43
1946279N18273 1946 59 NA CS NOT_NAMED 1946-10-06 18:00:00 TS 20.7000 -84.5000 75 hurdat_atl main 123 91 O_____________ hurdat_atl AL061946 20.7000 -84.5000 HU 75 1 9 35
1946279N18273 1946 59 NA CS NOT_NAMED 1946-10-06 21:00:00 TS 21.0700 -84.2694 main 80 44 P_____________ AL061946 21.0700 -84.2694 HU 77 1 9 25
1946279N18273 1946 59 NA CS NOT_NAMED 1946-10-07 00:00:00 TS 21.5000 -84.1000 80 hurdat_atl main 44 0 O_____________ hurdat_atl AL061946 21.5000 -84.1000 HU 80 1 10 17
1946279N18273 1946 59 NA CS NOT_NAMED 1946-10-07 03:00:00 TS 22.0306 -83.9482 main 10 0 P_____________ AL061946 22.0306 -83.9482 HU 80 1 11 15
1946279N18273 1946 59 NA CS NOT_NAMED 1946-10-07 04:00:00 TS 22.2000 -83.9000 80 977 hurdat_atl main 0 0 O_____________ hurdat_atl AL061946 22.2000 -83.9000 L HU 80 977 1 10 16
1946279N18273 1946 59 NA NA NOT_NAMED 1946-10-07 06:00:00 TS 22.5000 -83.8000 80 977 hurdat_atl main 0 0 O_____________ hurdat_atl AL061946 22.5000 -83.8000 HU 80 977 1 10 13
1946279N18273 1946 59 NA GM NOT_NAMED 1946-10-07 09:00:00 TS 23.0328 -83.6945 main 22 22 P_____________ AL061946 23.0328 -83.6945 HU 82 977 1 12 9
1946279N18273 1946 59 NA GM NOT_NAMED 1946-10-07 12:00:00 TS 23.7000 -83.6000 85 hurdat_atl main 91 91 I_____________ hurdat_atl AL061946 23.7000 -83.6000 HU 85 978 2 15 8
1946279N18273 1946 59 NA GM NOT_NAMED 1946-10-07 15:00:00 TS 24.5200 -83.4649 main 179 169 P_____________ AL061946 24.5200 -83.4649 HU 82 978 1 17 9
1946279N18273 1946 59 NA GM NOT_NAMED 1946-10-07 18:00:00 TS 25.4000 -83.3000 80 979 hurdat_atl main 169 111 O_____________ hurdat_atl AL061946 25.4000 -83.3000 HU 80 979 1 17 9
1946279N18273 1946 59 NA GM NOT_NAMED 1946-10-07 21:00:00 TS 26.2179 -83.1640 main 111 44 P_____________ AL061946 26.2179 -83.1640 HU 77 979 1 16 13
1946279N18273 1946 59 NA GM NOT_NAMED 1946-10-08 00:00:00 TS 27.0000 -82.9000 75 980 hurdat_atl main 44 0 O_____________ hurdat_atl AL061946 27.0000 -82.9000 HU 75 980 1 17 21
1946279N18273 1946 59 NA GM NOT_NAMED 1946-10-08 02:00:00 TS 27.5000 -82.6000 75 980 hurdat_atl main 0 0 O_____________ hurdat_atl AL061946 27.5000 -82.6000 L HU 75 980 1 17 23
1946279N18273 1946 59 NA GM NOT_NAMED 1946-10-08 03:00:00 TS 27.7551 -82.5287 main 0 0 P_____________ AL061946 27.7551 -82.5287 HU 72 1 17 5
1946279N18273 1946 59 NA NA NOT_NAMED 1946-10-08 06:00:00 TS 28.6000 -82.5000 65 hurdat_atl main 0 0 O_____________ hurdat_atl AL061946 28.6000 -82.5000 HU 65 1 19 5
1946279N18273 1946 59 NA NA NOT_NAMED 1946-10-08 09:00:00 TS 29.6854 -82.3233 main 0 0 P_____________ AL061946 29.6854 -82.3233 HU 60 0 22 9
1946279N18273 1946 59 NA NA NOT_NAMED 1946-10-08 12:00:00 TS 30.8000 -82.1000 55 hurdat_atl main 0 0 O_____________ hurdat_atl AL061946 30.8000 -82.1000 TS 55 0 21 11
1946279N18273 1946 59 NA NA NOT_NAMED 1946-10-08 15:00:00 TS 31.7400 -81.8777 main 0 0 P_____________ AL061946 31.7400 -81.8777 TS 52 0 17 11
1946279N18273 1946 59 NA NA NOT_NAMED 1946-10-08 18:00:00 TS 32.5000 -81.7000 50 hurdat_atl main 0 0 O_____________ hurdat_atl AL061946 32.5000 -81.7000 TS 50 0 14 8
1946279N18273 1946 59 NA NA NOT_NAMED 1946-10-08 21:00:00 TS 33.0899 -81.6417 main 0 0 P_____________ AL061946 33.0899 -81.6417 TS 45 0 10 5
1946279N18273 1946 59 NA NA NOT_NAMED 1946-10-09 00:00:00 TS 33.5000 -81.6000 40 hurdat_atl main 0 0 O_____________ hurdat_atl AL061946 33.5000 -81.6000 TS 40 0 7 10
1946279N18273 1946 59 NA NA NOT_NAMED 1946-10-09 03:00:00 TS 33.8023 -81.4949 main 0 0 P_____________ AL061946 33.8023 -81.4949 TS 37 0 6 27
1946279N18273 1946 59 NA NA NOT_NAMED 1946-10-09 06:00:00 ET 34.0000 -81.3000 35 hurdat_atl main 0 0 O_____________ hurdat_atl AL061946 34.0000 -81.3000 EX 35 -4 5 45
1946279N18273 1946 59 NA NA NOT_NAMED 1946-10-09 09:00:00 ET 34.1565 -81.0618 main 0 0 P_____________ AL061946 34.1565 -81.0618 EX 32 -4 7 63
1946279N18273 1946 59 NA NA NOT_NAMED 1946-10-09 12:00:00 ET 34.3000 -80.6000 30 hurdat_atl main 0 0 O_____________ hurdat_atl AL061946 34.3000 -80.6000 EX 30 -4 11 73
1946279N18273 1946 59 NA NA NOT_NAMED 1946-10-09 15:00:00 ET 34.4779 -79.7971 main 0 0 P_____________ AL061946 34.4779 -79.7971 EX 30 -4 15 75
1946279N18273 1946 59 NA NA NOT_NAMED 1946-10-09 18:00:00 ET 34.7000 -78.8000 30 hurdat_atl main 0 0 O_____________ hurdat_atl AL061946 34.7000 -78.8000 EX 30 -4 17 73
1946279N18273 1946 59 NA NA NOT_NAMED 1946-10-09 21:00:00 ET 34.9849 -77.8001 main 0 0 P_____________ AL061946 34.9849 -77.8001 EX 30 -4 17 70
1946279N18273 1946 59 NA NA NOT_NAMED 1946-10-10 00:00:00 ET 35.3000 -76.8000 30 hurdat_atl main 0 0 O_____________ hurdat_atl AL061946 35.3000 -76.8000 EX 30 -4 17 68
1946279N18273 1946 59 NA NA NOT_NAMED 1946-10-10 03:00:00 ET 35.6216 -75.8775 main 0 0 P_____________ AL061946 35.6216 -75.8775 EX 32 -4 16 68
1946279N18273 1946 59 NA NA NOT_NAMED 1946-10-10 06:00:00 ET 35.9000 -75.0000 35 hurdat_atl main 46 46 O_____________ hurdat_atl AL061946 35.9000 -75.0000 EX 35 -4 15 70
1946279N18273 1946 59 NA NA NOT_NAMED 1946-10-10 09:00:00 ET 36.1156 -74.1879 main 121 121 P_____________ AL061946 36.1156 -74.1879 EX 37 -4 14 78
1946279N18273 1946 59 NA NA NOT_NAMED 1946-10-10 12:00:00 ET 36.2000 -73.3000 40 hurdat_atl main 202 202 O_____________ hurdat_atl AL061946 36.2000 -73.3000 EX 40 -4 15 90
1946279N18273 1946 59 NA NA NOT_NAMED 1946-10-10 15:00:00 ET 36.1150 -72.2701 main 289 289 P_____________ AL061946 36.1150 -72.2701 EX 40 -4 19 99
1946279N18273 1946 59 NA NA NOT_NAMED 1946-10-10 18:00:00 ET 35.9000 -71.0000 40 hurdat_atl main 404 404 O_____________ hurdat_atl AL061946 35.9000 -71.0000 EX 40 -4 24 101
1946279N18273 1946 59 NA NA NOT_NAMED 1946-10-10 21:00:00 ET 35.6397 -69.3795 main 549 549 P_____________ AL061946 35.6397 -69.3795 EX 37 -4 27 103
1946279N18273 1946 59 NA NA NOT_NAMED 1946-10-11 00:00:00 ET 35.3000 -67.7000 35 hurdat_atl main 706 706 O_____________ hurdat_atl AL061946 35.3000 -67.7000 EX 35 -4 27 106
1946279N18273 1946 59 NA NA NOT_NAMED 1946-10-11 03:00:00 ET 34.9069 -66.2148 main 825 825 P_____________ AL061946 34.9069 -66.2148 EX 35 -4 24 110
1946279N18273 1946 59 NA NA NOT_NAMED 1946-10-11 06:00:00 ET 34.5000 -65.0000 35 hurdat_atl main 912 912 O_____________ hurdat_atl AL061946 34.5000 -65.0000 EX 35 -4 19 114
1946279N18273 1946 59 NA NA NOT_NAMED 1946-10-11 09:00:00 ET 34.1332 -64.1090 main 990 990 P_____________ AL061946 34.1332 -64.1090 EX 32 -4 14 119
1946279N18273 1946 59 NA NA NOT_NAMED 1946-10-11 12:00:00 ET 33.8000 -63.5000 30 hurdat_atl main 1047 1047 O_____________ hurdat_atl AL061946 33.8000 -63.5000 EX 30 -4 11 126
1946279N18273 1946 59 NA NA NOT_NAMED 1946-10-11 15:00:00 ET 33.4918 -63.0334 main 1100 1100 P_____________ AL061946 33.4918 -63.0334 EX 27 -4 9 132
1946279N18273 1946 59 NA NA NOT_NAMED 1946-10-11 18:00:00 ET 33.2000 -62.7000 25 hurdat_atl main 1143 1143 O_____________ hurdat_atl AL061946 33.2000 -62.7000 EX 25 -4 8 137
1946279N18273 1946 59 NA NA NOT_NAMED 1946-10-11 21:00:00 ET 32.8924 -62.3702 main 1186 1186 P_____________ AL061946 32.8924 -62.3702 EX 25 -4 8 140
1946279N18273 1946 59 NA NA NOT_NAMED 1946-10-12 00:00:00 ET 32.6000 -62.1000 25 hurdat_atl main 1229 1229 O_____________ hurdat_atl AL061946 32.6000 -62.1000 EX 25 -4 7 143
1946279N18273 1946 59 NA NA NOT_NAMED 1946-10-12 03:00:00 ET 32.3499 -61.8778 main 1267 1267 P_____________ AL061946 32.3499 -61.8778 EX 25 -4 6 146
1946279N18273 1946 59 NA NA NOT_NAMED 1946-10-12 06:00:00 ET 32.1000 -61.7000 25 hurdat_atl main 1296 1296 O_____________ hurdat_atl AL061946 32.1000 -61.7000 EX 25 -4 6 150
1946279N18273 1946 59 NA NA NOT_NAMED 1946-10-12 09:00:00 ET 31.8450 -61.5352 main 1335 1335 P_____________ AL061946 31.8450 -61.5352 EX 25 -4 7 157
1946279N18273 1946 59 NA NA NOT_NAMED 1946-10-12 12:00:00 ET 31.5000 -61.4000 25 hurdat_atl main 1368 1368 O_____________ hurdat_atl AL061946 31.5000 -61.4000 EX 25 -4 9 165
1946279N18273 1946 59 NA NA NOT_NAMED 1946-10-12 15:00:00 ET 30.9950 -61.2697 main 1418 1412 P_____________ AL061946 30.9950 -61.2697 EX 25 -4 11 171
1946279N18273 1946 59 NA NA NOT_NAMED 1946-10-12 18:00:00 ET 30.4000 -61.2000 25 hurdat_atl main 1412 1349 O_____________ hurdat_atl AL061946 30.4000 -61.2000 EX 25 -4 12 176
1946279N18273 1946 59 NA NA NOT_NAMED 1946-10-12 21:00:00 ET 29.7998 -61.1821 main 1349 1283 P_____________ AL061946 29.7998 -61.1821 EX 25 -4 12 184
1946279N18273 1946 59 NA NA NOT_NAMED 1946-10-13 00:00:00 ET 29.2000 -61.3000 25 hurdat_atl main 1283 1220 O_____________ hurdat_atl AL061946 29.2000 -61.3000 EX 25 -4 12 197
1946279N18273 1946 59 NA NA NOT_NAMED 1946-10-13 03:00:00 ET 28.6275 -61.5903 main 1210 1144 P_____________ AL061946 28.6275 -61.5903 EX 25 -4 13 209
1946279N18273 1946 59 NA NA NOT_NAMED 1946-10-13 06:00:00 ET 28.1000 -62.0000 25 hurdat_atl main 1144 1079 O_____________ hurdat_atl AL061946 28.1000 -62.0000 EX 25 -4 13 216
1946279N18273 1946 59 NA NA NOT_NAMED 1946-10-13 09:00:00 ET 27.6123 -62.4198 main 1079 1021 P_____________ AL061946 27.6123 -62.4198 EX 25 -4 12 222
1946279N18273 1946 59 NA NA NOT_NAMED 1946-10-13 12:00:00 ET 27.2000 -62.9000 25 hurdat_atl main 1021 976 O_____________ hurdat_atl AL061946 27.2000 -62.9000 EX 25 -4 12 230
1946279N18273 1946 59 NA NA NOT_NAMED 1946-10-13 15:00:00 ET 26.8624 -63.4272 main 976 931 P_____________ AL061946 26.8624 -63.4272 EX 25 -4 12 239
1946279N18273 1946 59 NA NA NOT_NAMED 1946-10-13 18:00:00 ET 26.6000 -64.0000 25 hurdat_atl main 931 900 O_____________ hurdat_atl AL061946 26.6000 -64.0000 EX 25 -4 11 245
1946279N18273 1946 59 NA NA NOT_NAMED 1946-10-13 21:00:00 ET 26.3847 -64.5846 main 900 872 P_____________ AL061946 26.3847 -64.5846 EX 25 -4 11 250
1946279N18273 1946 59 NA NA NOT_NAMED 1946-10-14 00:00:00 ET 26.2000 -65.2000 25 hurdat_atl main 872 830 O_____________ hurdat_atl AL061946 26.2000 -65.2000 EX 25 -4 12 251
1946279N18273 1946 59 NA NA NOT_NAMED 1946-10-14 03:00:00 ET 25.9921 -65.8274 main 830 780 P_____________ AL061946 25.9921 -65.8274 EX 25 -4 12 251
1946279N18273 1946 59 NA NA NOT_NAMED 1946-10-14 06:00:00 ET 25.8000 -66.5000 25 hurdat_atl main 780 729 O_____________ hurdat_atl AL061946 25.8000 -66.5000 EX 25 -4 13 254
1946279N18273 1946 59 NA NA NOT_NAMED 1946-10-14 09:00:00 ET 25.6348 -67.2349 main 729 690 P_____________ AL061946 25.6348 -67.2349 EX 25 -4 14 257
1946279N18273 1946 59 NA NA NOT_NAMED 1946-10-14 12:00:00 ET 25.5000 -68.0000 25 hurdat_atl main 690 642 O_____________ hurdat_atl AL061946 25.5000 -68.0000 EX 25 -4 14 260
1946279N18273 1946 59 NA NA NOT_NAMED 1946-10-14 15:00:00 ET 25.3931 -68.7551 main 635 581 P_____________ AL061946 25.3931 -68.7551 EX 25 -4 14 262
1946279N18273 1946 59 NA NA NOT_NAMED 1946-10-14 18:00:00 ET 25.3000 -69.5000 25 hurdat_atl main 581 O_____________ hurdat_atl AL061946 25.3000 -69.5000 EX 25 -4 14 262

IBTrACS Databaseについて

本データベースは、米国NOAAが公開する1842年以降の世界の熱帯低気圧のベストトラックデータアーカイブInternational Best Track Archive for Climate Stewardship (IBTrACS)を、ウェブで閲覧しやすい形式に変換したものです。

最終更新日:2021-10-08